Time;durP1;ratioP1;P1;durP2;ratioP2;P2;SDS_P1;SDS_P2;PMS_P1;PMS_P2;Temp;Humidity;BMP_temperature;BMP_pressure;BME280_temperature;BME280_humidity;BME280_pressure;Samples;Min_cycle;Max_cycle;Signal;HPM_P1;HPM_P2
2023/12/25 00:00:22;;;;;;;2.03;1.00;;;;;;;9.19;69.90;95217.69;4986580;28;20290;-79
2023/12/25 00:02:47;;;;;;;2.67;1.00;;;;;;;9.14;70.50;95230.28;4986916;28;20203;-79
2023/12/25 00:05:13;;;;;;;4.60;1.27;;;;;;;9.25;70.33;95232.63;5004244;28;20198;-77
2023/12/25 00:07:38;;;;;;;3.40;1.40;;;;;;;9.16;70.76;95238.69;4990272;28;20211;-78
2023/12/25 00:10:04;;;;;;;5.40;1.10;;;;;;;9.25;70.55;95242.19;5006214;28;20198;-78
2023/12/25 00:12:29;;;;;;;2.80;1.00;;;;;;;9.17;71.15;95242.09;4989932;28;20192;-77
2023/12/25 00:14:54;;;;;;;2.97;1.20;;;;;;;9.34;70.43;95223.97;4998752;28;20658;-79
2023/12/25 00:17:20;;;;;;;3.17;1.10;;;;;;;9.35;70.69;95235.97;5005636;28;20603;-78
2023/12/25 00:19:45;;;;;;;2.00;1.10;;;;;;;9.07;71.52;95218.84;5004347;28;20195;-79
2023/12/25 00:22:10;;;;;;;1.80;1.20;;;;;;;9.01;71.81;95209.06;5003201;28;20179;-79
2023/12/25 00:24:36;;;;;;;4.83;1.17;;;;;;;9.04;71.49;95209.59;4994907;28;20180;-78
2023/12/25 00:27:01;;;;;;;2.43;1.13;;;;;;;8.87;71.85;95217.34;5015798;28;20231;-78
2023/12/25 00:29:26;;;;;;;3.77;1.20;;;;;;;8.93;71.50;95216.78;4972908;28;20556;-79
2023/12/25 00:31:52;;;;;;;4.57;0.90;;;;;;;8.95;71.84;95204.50;4991323;28;20207;-78
2023/12/25 00:34:17;;;;;;;1.83;0.97;;;;;;;8.90;72.08;95223.03;5002831;28;20190;-78
2023/12/25 00:36:42;;;;;;;2.90;1.10;;;;;;;9.24;70.86;95223.25;4985264;28;20203;-79
2023/12/25 00:39:08;;;;;;;3.10;1.60;;;;;;;9.03;71.08;95227.88;4988999;28;20213;-79
2023/12/25 00:41:33;;;;;;;2.70;1.23;;;;;;;9.41;69.87;95220.81;4986765;28;20223;-79
2023/12/25 00:43:58;;;;;;;3.17;1.00;;;;;;;9.39;69.75;95228.72;4983579;28;20212;-79
2023/12/25 00:46:24;;;;;;;2.13;0.90;;;;;;;9.24;70.18;95235.38;5001096;28;20580;-78
2023/12/25 00:48:49;;;;;;;2.93;1.13;;;;;;;9.24;69.75;95231.00;4991228;28;20192;-79
2023/12/25 00:51:15;;;;;;;4.60;1.03;;;;;;;9.27;69.70;95209.97;5003835;28;20231;-79
2023/12/25 00:53:40;;;;;;;3.27;1.20;;;;;;;9.33;69.16;95224.94;4986155;28;20207;-78
2023/12/25 00:56:06;;;;;;;1.67;1.10;;;;;;;8.95;70.49;95236.38;5007428;28;20204;-78
2023/12/25 00:58:31;;;;;;;3.33;1.27;;;;;;;9.20;69.99;95234.06;4991660;28;20196;-79
2023/12/25 01:00:57;;;;;;;2.40;1.10;;;;;;;9.05;70.95;95226.78;5006821;28;20251;-79
2023/12/25 01:03:22;;;;;;;2.13;0.97;;;;;;;9.15;70.53;95226.72;5004914;28;20215;-78
2023/12/25 01:05:47;;;;;;;1.93;0.93;;;;;;;9.07;70.93;95229.22;4988830;28;20573;-78
2023/12/25 01:08:13;;;;;;;5.37;1.00;;;;;;;9.14;70.77;95226.88;4991847;28;20192;-77
2023/12/25 01:10:38;;;;;;;1.83;1.00;;;;;;;9.00;71.12;95212.63;5005376;28;20203;-78
2023/12/25 01:13:03;;;;;;;1.87;1.20;;;;;;;9.02;71.06;95236.63;5011937;28;20190;-78
2023/12/25 01:15:29;;;;;;;1.10;0.77;;;;;;;8.82;71.72;95233.31;5002590;28;20176;-78
2023/12/25 01:17:54;;;;;;;3.30;1.60;;;;;;;8.87;71.53;95231.09;5007222;28;20669;-78
2023/12/25 01:20:19;;;;;;;2.83;1.27;;;;;;;8.96;71.21;95209.53;5005352;28;20240;-79
2023/12/25 01:22:45;;;;;;;4.77;1.00;;;;;;;8.90;71.36;95196.34;4994003;28;20190;-77
2023/12/25 01:25:10;;;;;;;2.33;0.70;;;;;;;8.82;70.69;95204.81;5006911;28;20188;-79
2023/12/25 01:27:39;;;;;;;6.50;0.97;;;;;;;9.00;70.40;95197.91;5004343;28;20203;-79
2023/12/25 01:30:05;;;;;;;1.63;0.80;;;;;;;8.93;70.48;95206.41;5004245;28;20183;-79
2023/12/25 01:32:30;;;;;;;2.30;1.07;;;;;;;8.78;70.78;95199.13;5001640;28;20219;-77
2023/12/25 01:34:56;;;;;;;1.40;1.00;;;;;;;8.69;71.38;95200.00;5005030;28;20448;-79
2023/12/25 01:37:21;;;;;;;2.50;1.17;;;;;;;8.84;70.83;95191.75;4987623;28;20681;-78
2023/12/25 01:39:46;;;;;;;3.93;0.87;;;;;;;8.76;71.42;95201.06;4989743;28;20218;-77
2023/12/25 01:42:12;;;;;;;1.80;0.97;;;;;;;8.70;72.00;95211.16;5004495;28;20183;-78
2023/12/25 01:44:37;;;;;;;4.73;1.00;;;;;;;8.44;73.17;95205.84;4988896;28;20639;-77
2023/12/25 01:47:02;;;;;;;3.33;1.57;;;;;;;8.64;72.99;95199.59;5008655;28;20215;-79
2023/12/25 01:49:28;;;;;;;1.33;1.07;;;;;;;8.56;73.71;95204.69;5006812;28;20192;-78
2023/12/25 01:51:53;;;;;;;2.07;1.00;;;;;;;8.47;74.56;95208.94;5003909;28;20195;-78
2023/12/25 01:54:19;;;;;;;1.40;0.90;;;;;;;8.33;75.33;95211.16;5004325;28;20555;-79
2023/12/25 01:56:44;;;;;;;3.77;1.07;;;;;;;8.46;75.13;95211.69;5005883;28;20295;-77
2023/12/25 01:59:10;;;;;;;2.80;0.90;;;;;;;8.45;74.98;95212.63;5008218;28;20190;-77
2023/12/25 02:01:35;;;;;;;5.37;1.13;;;;;;;8.49;74.92;95212.22;4988655;28;20218;-79
2023/12/25 02:04:01;;;;;;;1.57;1.00;;;;;;;8.45;74.78;95208.28;4990443;28;20191;-78
2023/12/25 02:06:27;;;;;;;3.53;0.93;;;;;;;8.43;75.44;95209.38;5005663;28;20714;-79
2023/12/25 02:08:53;;;;;;;2.87;1.30;;;;;;;8.28;75.56;95227.09;5006000;28;20183;-79
2023/12/25 02:11:18;;;;;;;3.33;1.20;;;;;;;8.34;75.94;95228.31;5002988;28;20585;-78
2023/12/25 02:13:44;;;;;;;2.27;1.00;;;;;;;8.46;75.35;95237.56;4991617;28;20654;-78
2023/12/25 02:16:09;;;;;;;3.23;0.90;;;;;;;8.63;74.67;95236.00;4986945;28;20195;-79
2023/12/25 02:18:35;;;;;;;2.70;1.00;;;;;;;8.46;75.32;95253.91;5001735;28;20410;-78
2023/12/25 02:21:00;;;;;;;1.73;0.90;;;;;;;8.58;74.51;95251.97;4988948;28;20199;-79
2023/12/25 02:23:26;;;;;;;2.10;0.90;;;;;;;8.62;74.82;95255.06;5008213;28;20207;-79
2023/12/25 02:25:56;;;;;;;2.20;0.90;;;;;;;8.76;73.95;95245.06;4992006;28;20216;-78
2023/12/25 02:28:22;;;;;;;3.23;0.83;;;;;;;8.64;73.80;95245.38;4985853;28;20254;-78
2023/12/25 02:30:48;;;;;;;1.77;0.90;;;;;;;8.58;73.75;95240.81;4987264;28;20188;-78
2023/12/25 02:33:13;;;;;;;2.10;1.10;;;;;;;8.41;74.18;95239.78;5008983;28;20236;-77
2023/12/25 02:35:39;;;;;;;2.63;1.00;;;;;;;8.61;73.69;95227.56;5004163;28;20184;-78
2023/12/25 02:38:04;;;;;;;2.07;0.77;;;;;;;8.60;72.31;95231.94;5005725;28;20266;-79
2023/12/25 02:40:29;;;;;;;1.67;0.80;;;;;;;8.73;72.43;95237.56;5004247;28;20184;-78
2023/12/25 02:42:55;;;;;;;2.10;0.70;;;;;;;8.76;71.97;95226.13;5006576;28;20191;-79
2023/12/25 02:45:20;;;;;;;4.33;1.03;;;;;;;8.46;72.51;95225.44;5001550;28;20223;-78
2023/12/25 02:47:45;;;;;;;4.27;1.00;;;;;;;8.63;71.96;95223.88;4988387;28;20212;-79
2023/12/25 02:50:11;;;;;;;3.37;1.17;;;;;;;8.74;71.46;95223.66;5001179;28;20207;-79
2023/12/25 02:52:36;;;;;;;1.70;0.90;;;;;;;8.75;71.57;95227.09;4987821;28;20184;-78
2023/12/25 02:55:01;;;;;;;3.27;1.07;;;;;;;8.47;72.35;95218.47;4987088;28;20672;-78
2023/12/25 02:57:28;;;;;;;3.43;1.07;;;;;;;8.73;71.44;95216.88;4990822;28;20223;-78
2023/12/25 02:59:53;;;;;;;3.07;0.90;;;;;;;8.74;70.56;95210.72;4988931;28;20222;-78
2023/12/25 03:02:19;;;;;;;4.07;1.00;;;;;;;8.69;70.67;95212.94;5003349;28;20183;-79
2023/12/25 03:04:44;;;;;;;3.20;1.37;;;;;;;8.64;70.73;95211.72;5005179;28;20196;-78
2023/12/25 03:07:10;;;;;;;2.93;0.93;;;;;;;8.43;70.46;95211.97;5005473;28;20221;-78
2023/12/25 03:09:35;;;;;;;2.00;1.07;;;;;;;8.62;70.07;95211.06;5002672;28;20230;-79
2023/12/25 03:12:00;;;;;;;3.87;0.90;;;;;;;8.47;69.91;95210.72;4988194;28;20188;-77
2023/12/25 03:14:26;;;;;;;2.80;0.80;;;;;;;8.60;69.00;95213.00;5004635;28;20191;-79
2023/12/25 03:16:51;;;;;;;2.17;1.30;;;;;;;8.59;68.69;95208.78;5001360;28;20235;-78
2023/12/25 03:19:16;;;;;;;3.10;1.03;;;;;;;8.28;68.97;95201.22;5001689;28;20196;-78
2023/12/25 03:21:42;;;;;;;2.83;1.10;;;;;;;8.46;69.14;95194.38;4989194;28;20187;-79
2023/12/25 03:24:08;;;;;;;1.17;0.90;;;;;;;8.36;69.46;95205.72;5007387;28;20221;-78
2023/12/25 03:26:34;;;;;;;2.20;0.97;;;;;;;8.30;69.06;95214.03;4986504;28;20329;-77
2023/12/25 03:28:59;;;;;;;2.33;1.70;;;;;;;8.52;68.71;95208.53;4986698;28;20218;-79
2023/12/25 03:31:24;;;;;;;2.57;0.80;;;;;;;8.24;69.22;95199.91;5004107;28;20191;-78
2023/12/25 03:33:50;;;;;;;4.70;0.90;;;;;;;8.34;69.02;95205.84;5006045;28;20188;-79
2023/12/25 03:36:15;;;;;;;3.47;1.10;;;;;;;8.15;69.14;95213.69;5001557;28;20294;-78
2023/12/25 03:38:40;;;;;;;1.07;0.80;;;;;;;8.41;68.92;95217.28;4985627;28;20207;-77
2023/12/25 03:41:08;;;;;;;0.90;0.80;;;;;;;8.31;69.72;95213.09;5005122;28;20187;-78
2023/12/25 03:43:33;;;;;;;2.27;1.00;;;;;;;8.21;69.81;95210.50;4990970;28;20184;-78
2023/12/25 03:45:59;;;;;;;1.00;0.80;;;;;;;8.32;70.20;95194.03;4989895;28;20238;-77
2023/12/25 03:48:24;;;;;;;0.90;0.60;;;;;;;8.17;70.48;95214.34;5007535;28;20215;-79
2023/12/25 03:50:49;;;;;;;1.10;0.80;;;;;;;8.28;70.68;95213.34;5006251;28;20192;-79
2023/12/25 03:53:15;;;;;;;1.70;0.80;;;;;;;8.26;71.16;95216.09;5005949;28;20180;-77
2023/12/25 03:55:40;;;;;;;2.20;1.07;;;;;;;8.11;71.61;95213.13;5004794;28;20186;-79
2023/12/25 03:58:05;;;;;;;0.83;0.60;;;;;;;8.16;71.05;95217.91;5012263;28;20214;-78
2023/12/25 04:00:31;;;;;;;1.53;1.00;;;;;;;8.26;70.64;95210.09;4990352;28;20242;-77
2023/12/25 04:02:56;;;;;;;1.03;0.93;;;;;;;8.34;70.22;95211.03;4992706;28;20211;-77
2023/12/25 04:05:23;;;;;;;1.93;0.93;;;;;;;8.16;70.28;95197.19;5005848;28;20183;-79
2023/12/25 04:07:49;;;;;;;1.47;0.97;;;;;;;8.26;69.86;95192.00;4992150;28;20212;-79
2023/12/25 04:10:15;;;;;;;2.37;0.90;;;;;;;8.32;69.37;95189.66;5006442;28;20187;-79
2023/12/25 04:12:41;;;;;;;2.30;0.80;;;;;;;8.15;69.36;95190.41;4990049;28;20631;-78
2023/12/25 04:15:06;;;;;;;2.50;0.80;;;;;;;8.21;69.22;95195.81;4991061;28;20187;-79
2023/12/25 04:17:32;;;;;;;1.33;0.60;;;;;;;8.28;69.73;95200.41;5003312;28;20200;-79
2023/12/25 04:19:57;;;;;;;0.83;0.80;;;;;;;8.17;70.89;95212.56;4988694;28;20278;-77
2023/12/25 04:22:22;;;;;;;2.80;1.00;;;;;;;8.23;71.49;95209.44;5010888;28;20188;-78
2023/12/25 04:24:48;;;;;;;0.70;0.70;;;;;;;8.17;71.55;95202.22;5007636;28;20215;-78
2023/12/25 04:27:13;;;;;;;1.73;0.93;;;;;;;8.29;71.15;95215.78;4989002;28;20215;-79
2023/12/25 04:29:38;;;;;;;1.20;0.80;;;;;;;8.41;70.63;95217.28;5005288;28;20188;-79
2023/12/25 04:32:04;;;;;;;1.07;0.90;;;;;;;8.29;70.60;95212.41;4989531;28;20218;-78
2023/12/25 04:34:30;;;;;;;1.03;0.63;;;;;;;8.27;70.77;95212.53;4990574;28;20191;-78
2023/12/25 04:36:55;;;;;;;2.10;0.93;;;;;;;8.38;70.64;95216.75;5003877;28;20203;-79
2023/12/25 04:39:20;;;;;;;2.03;0.80;;;;;;;8.17;70.77;95209.19;4989943;28;20206;-79
2023/12/25 04:41:46;;;;;;;0.60;0.60;;;;;;;8.31;71.01;95210.50;5003438;28;20216;-77
2023/12/25 04:44:11;;;;;;;1.87;0.70;;;;;;;8.44;70.88;95200.66;4990384;28;20191;-79
2023/12/25 04:46:39;;;;;;;1.40;0.70;;;;;;;8.27;71.80;95215.13;5002985;28;20288;-79
2023/12/25 04:49:05;;;;;;;1.00;0.80;;;;;;;8.19;72.54;95202.09;4977773;28;20195;-79
2023/12/25 04:51:30;;;;;;;1.60;0.70;;;;;;;8.34;72.59;95205.84;5001154;28;20176;-78
2023/12/25 04:53:56;;;;;;;2.27;1.10;;;;;;;8.20;73.37;95208.88;5004872;28;20199;-78
2023/12/25 04:56:21;;;;;;;1.60;0.63;;;;;;;7.98;74.41;95215.22;5004481;28;20263;-78
2023/12/25 04:58:46;;;;;;;1.30;0.90;;;;;;;8.20;74.26;95220.03;5009214;28;20215;-78
2023/12/25 05:01:12;;;;;;;1.80;0.90;;;;;;;8.13;74.25;95213.81;5005475;28;20197;-78
2023/12/25 05:03:37;;;;;;;1.17;0.87;;;;;;;8.18;74.10;95209.03;5002829;28;20187;-77
2023/12/25 05:06:03;;;;;;;0.80;0.70;;;;;;;8.23;73.96;95217.19;4997581;28;20212;-77
2023/12/25 05:08:28;;;;;;;1.23;0.70;;;;;;;8.02;74.14;95234.66;4987717;28;20551;-76
2023/12/25 05:10:53;;;;;;;1.03;0.97;;;;;;;8.10;73.31;95215.84;4983113;28;20237;-77
2023/12/25 05:13:19;;;;;;;0.90;0.77;;;;;;;8.09;73.47;95217.63;4987438;28;20183;-77
2023/12/25 05:15:44;;;;;;;1.07;0.80;;;;;;;8.00;73.65;95218.47;4999262;28;20275;-76
2023/12/25 05:18:09;;;;;;;2.03;0.83;;;;;;;7.88;73.88;95207.47;5000264;28;20184;-79
2023/12/25 05:20:35;;;;;;;1.33;0.73;;;;;;;7.90;74.02;95212.50;4985377;28;20291;-78
2023/12/25 05:23:01;;;;;;;0.87;0.70;;;;;;;8.06;73.15;95217.91;4992153;28;20196;-77
2023/12/25 05:25:26;;;;;;;0.67;0.50;;;;;;;7.94;73.60;95208.69;5004571;28;20191;-78
2023/12/25 05:27:52;;;;;;;1.20;0.60;;;;;;;7.71;74.74;95200.44;4986724;28;20717;-79
2023/12/25 05:30:17;;;;;;;1.00;0.70;;;;;;;7.90;74.15;95204.75;4988632;28;20202;-78
2023/12/25 05:32:42;;;;;;;1.17;0.70;;;;;;;7.73;74.61;95202.88;4986942;28;20211;-76
2023/12/25 05:35:08;;;;;;;0.87;0.70;;;;;;;7.87;74.56;95208.44;4985374;28;20738;-77
2023/12/25 05:37:33;;;;;;;0.90;0.70;;;;;;;8.01;73.62;95204.59;4968341;28;20215;-79
2023/12/25 05:39:59;;;;;;;0.93;0.70;;;;;;;7.77;74.48;95192.13;5007414;28;20297;-79
2023/12/25 05:42:25;;;;;;;1.50;1.00;;;;;;;7.88;74.56;95198.91;4987007;28;20192;-78
2023/12/25 05:44:50;;;;;;;0.90;0.70;;;;;;;8.00;74.02;95202.97;5004005;28;20187;-79
2023/12/25 05:47:15;;;;;;;0.83;0.67;;;;;;;7.89;74.69;95191.00;4983100;28;20207;-78
2023/12/25 05:49:41;;;;;;;1.10;0.90;;;;;;;7.94;74.08;95193.16;5001626;28;20188;-78
2023/12/25 05:52:06;;;;;;;1.13;0.80;;;;;;;8.12;73.89;95183.72;4987904;28;20656;-79
2023/12/25 05:54:32;;;;;;;1.27;0.77;;;;;;;8.00;73.82;95182.28;5002578;28;20190;-78
2023/12/25 05:56:58;;;;;;;3.23;0.80;;;;;;;7.95;74.33;95199.97;5005552;28;20212;-78
2023/12/25 05:59:23;;;;;;;1.17;0.70;;;;;;;7.95;73.35;95205.97;4985713;28;20195;-78
2023/12/25 06:01:49;;;;;;;1.33;0.80;;;;;;;8.20;72.82;95201.13;4986673;28;20259;-78
2023/12/25 06:04:14;;;;;;;2.27;0.80;;;;;;;8.13;73.36;95197.50;4997871;28;20249;-79
2023/12/25 06:06:40;;;;;;;0.67;0.60;;;;;;;7.83;74.23;95193.34;5000946;28;20272;-77
2023/12/25 06:09:06;;;;;;;1.43;0.70;;;;;;;7.99;74.21;95196.16;5000919;28;20604;-77
2023/12/25 06:11:35;;;;;;;2.90;1.10;;;;;;;7.93;74.34;95201.88;5000585;28;20187;-77
2023/12/25 06:14:00;;;;;;;1.10;0.70;;;;;;;8.06;73.64;95212.75;5003695;28;20272;-76
2023/12/25 06:16:26;;;;;;;1.80;1.03;;;;;;;7.91;74.38;95216.72;4994723;28;20239;-77
2023/12/25 06:18:51;;;;;;;1.10;0.77;;;;;;;8.08;72.92;95220.38;4996092;28;20238;-76
2023/12/25 06:21:16;;;;;;;2.17;0.80;;;;;;;8.01;72.58;95209.75;4980404;28;20192;-77
2023/12/25 06:23:43;;;;;;;0.77;0.70;;;;;;;8.15;71.84;95206.72;5001624;28;20318;-77
2023/12/25 06:26:08;;;;;;;0.77;0.57;;;;;;;8.14;71.60;95222.41;4999863;28;20215;-76
2023/12/25 06:28:33;;;;;;;0.93;0.70;;;;;;;8.21;70.18;95216.50;4997090;28;20646;-76
2023/12/25 06:30:59;;;;;;;0.87;0.73;;;;;;;8.51;69.68;95223.25;4993622;28;20196;-77
2023/12/25 06:33:24;;;;;;;1.23;0.83;;;;;;;8.60;68.45;95237.09;5001498;28;20194;-77
2023/12/25 06:35:49;;;;;;;1.20;0.97;;;;;;;8.20;68.83;95225.22;4998954;28;21025;-76
2023/12/25 06:38:15;;;;;;;1.37;1.00;;;;;;;8.47;68.19;95229.66;4998232;28;20266;-77
2023/12/25 06:40:40;;;;;;;1.20;0.70;;;;;;;8.58;67.63;95223.50;4998378;28;20226;-77
2023/12/25 06:43:07;;;;;;;1.20;0.60;;;;;;;8.82;66.88;95242.84;5000690;28;20186;-76
2023/12/25 06:45:33;;;;;;;1.43;0.70;;;;;;;8.81;66.60;95252.38;4980543;28;20221;-77
2023/12/25 06:47:58;;;;;;;0.70;0.70;;;;;;;8.90;66.41;95261.06;4997541;28;20192;-77
2023/12/25 06:50:23;;;;;;;1.13;0.60;;;;;;;8.82;66.86;95248.84;4997988;28;20191;-76
2023/12/25 06:52:49;;;;;;;0.63;0.60;;;;;;;8.60;67.36;95241.47;4981939;28;20188;-77
2023/12/25 06:55:14;;;;;;;0.90;0.70;;;;;;;8.69;67.09;95231.06;4997120;28;20242;-77
2023/12/25 06:57:40;;;;;;;0.50;0.50;;;;;;;8.72;66.87;95230.78;5002311;28;20211;-78
2023/12/25 07:00:05;;;;;;;0.63;0.63;;;;;;;8.63;66.43;95226.44;4990611;28;20194;-78
2023/12/25 07:02:31;;;;;;;1.03;0.70;;;;;;;8.48;65.68;95236.47;4985435;28;20191;-77
2023/12/25 07:04:56;;;;;;;2.73;0.93;;;;;;;8.69;64.71;95232.84;5004156;28;20211;-78
2023/12/25 07:07:22;;;;;;;0.60;0.60;;;;;;;8.80;64.75;95237.81;4988374;28;20242;-78
2023/12/25 07:09:47;;;;;;;1.53;0.80;;;;;;;8.78;64.18;95247.50;5004908;28;20215;-79
2023/12/25 07:12:12;;;;;;;1.23;0.80;;;;;;;8.76;65.32;95252.84;5005268;28;20199;-78
2023/12/25 07:14:38;;;;;;;0.80;0.70;;;;;;;8.57;65.79;95259.84;5007165;28;20198;-77
2023/12/25 07:17:07;;;;;;;1.50;0.80;;;;;;;8.61;65.72;95248.28;4989771;28;20225;-78
2023/12/25 07:19:33;;;;;;;2.03;0.80;;;;;;;8.75;65.75;95256.38;4999862;28;20206;-78
2023/12/25 07:21:58;;;;;;;1.03;0.87;;;;;;;8.70;65.81;95256.00;5006155;28;20195;-78
2023/12/25 07:24:24;;;;;;;1.60;1.00;;;;;;;8.74;65.85;95252.16;5008518;28;20191;-79
2023/12/25 07:26:49;;;;;;;1.03;0.70;;;;;;;8.78;66.30;95263.03;4989591;28;20211;-79
2023/12/25 07:29:16;;;;;;;1.17;0.87;;;;;;;8.70;66.39;95252.59;5004603;28;20199;-78
2023/12/25 07:31:42;;;;;;;1.10;1.00;;;;;;;8.89;66.32;95262.03;5007411;28;20211;-78
2023/12/25 07:34:07;;;;;;;1.00;0.73;;;;;;;8.70;66.38;95252.59;4994911;28;20187;-78
2023/12/25 07:36:32;;;;;;;2.00;1.00;;;;;;;8.49;66.90;95255.41;5005713;28;20216;-77
2023/12/25 07:38:58;;;;;;;0.80;0.80;;;;;;;8.53;67.22;95267.09;5005889;28;20195;-79
2023/12/25 07:41:24;;;;;;;2.93;1.10;;;;;;;8.64;67.57;95274.66;5006494;28;20192;-78
2023/12/25 07:43:49;;;;;;;1.00;0.90;;;;;;;8.70;67.32;95275.88;5009530;28;20196;-78
2023/12/25 07:46:15;;;;;;;1.00;0.77;;;;;;;8.74;67.20;95272.03;5005417;28;20215;-78
2023/12/25 07:48:40;;;;;;;1.10;1.00;;;;;;;8.67;67.84;95289.13;5003770;28;20187;-78
2023/12/25 07:51:06;;;;;;;0.80;0.60;;;;;;;8.59;67.80;95289.00;4986892;28;20188;-78
2023/12/25 07:53:31;;;;;;;1.37;0.90;;;;;;;8.50;68.63;95282.91;4999234;28;20276;-78
2023/12/25 07:55:57;;;;;;;1.93;0.70;;;;;;;8.68;67.86;95295.94;5006604;28;20227;-78
2023/12/25 07:58:22;;;;;;;2.13;0.80;;;;;;;8.59;68.14;95300.19;4993472;28;20187;-78
2023/12/25 08:00:48;;;;;;;0.87;0.80;;;;;;;8.80;67.99;95299.97;5007760;28;20184;-78
2023/12/25 08:03:13;;;;;;;1.60;0.80;;;;;;;8.78;67.67;95307.88;5004438;28;20184;-79
2023/12/25 08:05:39;;;;;;;2.33;1.13;;;;;;;8.87;67.60;95313.16;5003764;28;20673;-78
2023/12/25 08:08:05;;;;;;;1.67;0.90;;;;;;;8.80;67.94;95311.13;4989736;28;20558;-79
2023/12/25 08:10:31;;;;;;;0.60;0.60;;;;;;;8.86;67.62;95316.72;4986174;28;20188;-78
2023/12/25 08:12:58;;;;;;;0.83;0.77;;;;;;;8.69;68.04;95306.13;5003759;28;20180;-79
2023/12/25 08:15:24;;;;;;;1.20;0.80;;;;;;;8.76;67.86;95303.81;4988601;28;20188;-79
2023/12/25 08:17:49;;;;;;;1.10;0.60;;;;;;;8.57;68.69;95322.81;5001713;28;20208;-78
2023/12/25 08:20:15;;;;;;;1.40;0.73;;;;;;;8.74;69.09;95322.03;5002110;28;20666;-79
2023/12/25 08:22:40;;;;;;;1.07;0.90;;;;;;;8.72;69.13;95342.09;4989336;28;20393;-79
2023/12/25 08:25:06;;;;;;;3.20;1.47;;;;;;;8.61;70.02;95331.91;5007885;28;20283;-78
2023/12/25 08:27:31;;;;;;;0.83;0.70;;;;;;;8.45;70.76;95342.84;5002017;28;20692;-77
2023/12/25 08:29:56;;;;;;;0.70;0.70;;;;;;;8.77;69.89;95345.09;4987854;28;20191;-79
2023/12/25 08:32:22;;;;;;;0.70;0.70;;;;;;;8.84;70.09;95347.94;5003952;28;20774;-79
2023/12/25 08:34:47;;;;;;;1.10;1.00;;;;;;;8.77;70.20;95346.84;4998678;28;20561;-79
2023/12/25 08:37:13;;;;;;;1.37;0.67;;;;;;;8.83;70.35;95350.63;4979173;28;20270;-79
2023/12/25 08:39:38;;;;;;;2.03;0.70;;;;;;;8.41;71.30;95369.97;4998530;28;20565;-80
2023/12/25 08:42:04;;;;;;;1.50;0.83;;;;;;;8.73;70.92;95356.66;4989342;28;20278;-78
2023/12/25 08:44:32;;;;;;;2.53;1.13;;;;;;;8.61;71.59;95331.91;5007210;28;20187;-78
2023/12/25 08:46:58;;;;;;;1.23;0.90;;;;;;;8.59;71.78;95353.72;5005434;28;20215;-78
2023/12/25 08:49:23;;;;;;;0.90;0.90;;;;;;;8.39;72.43;95338.25;5005395;28;20187;-77
2023/12/25 08:51:48;;;;;;;1.03;0.90;;;;;;;8.61;71.75;95365.56;4990023;28;20210;-78
2023/12/25 08:54:14;;;;;;;3.77;0.80;;;;;;;8.36;73.02;95361.78;5005231;28;20179;-77
2023/12/25 08:56:39;;;;;;;2.00;0.80;;;;;;;8.28;74.12;95366.81;4988492;28;20203;-77
2023/12/25 08:59:05;;;;;;;2.93;2.10;;;;;;;8.46;74.09;95370.34;4993437;28;20191;-78
2023/12/25 09:01:31;;;;;;;2.63;1.90;;;;;;;8.29;75.02;95363.25;4999445;28;20184;-77
2023/12/25 09:03:57;;;;;;;5.80;3.57;;;;;;;8.40;75.42;95346.81;5004867;28;20195;-79
2023/12/25 09:06:23;;;;;;;2.07;1.27;;;;;;;8.25;76.48;95336.03;4988412;28;20287;-78
2023/12/25 09:08:49;;;;;;;2.60;1.70;;;;;;;8.40;76.25;95342.47;4992879;28;20262;-78
2023/12/25 09:11:14;;;;;;;2.87;2.10;;;;;;;8.34;76.61;95339.56;5006461;28;20247;-78
2023/12/25 09:13:40;;;;;;;2.90;1.20;;;;;;;8.17;77.22;95343.69;5007441;28;20602;-78
2023/12/25 09:16:05;;;;;;;3.60;2.67;;;;;;;8.10;77.68;95343.41;5003720;28;20279;-77
2023/12/25 09:18:30;;;;;;;1.63;1.53;;;;;;;7.90;78.84;95342.59;4983957;28;20180;-76
2023/12/25 09:20:57;;;;;;;3.47;3.13;;;;;;;8.41;77.00;95369.97;5001993;28;20318;-78
2023/12/25 09:23:22;;;;;;;2.20;2.00;;;;;;;8.20;78.02;95362.31;4992934;28;20214;-78
2023/12/25 09:25:48;;;;;;;5.87;3.00;;;;;;;8.15;78.37;95377.44;4999374;28;20219;-77
2023/12/25 09:28:14;;;;;;;1.00;0.90;;;;;;;8.12;78.37;95374.28;5002615;28;20180;-78
2023/12/25 09:30:39;;;;;;;1.73;0.90;;;;;;;8.29;77.73;95378.78;5002669;28;20184;-78
2023/12/25 09:33:04;;;;;;;0.80;0.80;;;;;;;8.29;77.89;95380.56;4987554;28;20221;-78
2023/12/25 09:35:30;;;;;;;0.70;0.70;;;;;;;8.51;76.63;95383.69;5002773;28;20631;-78
2023/12/25 09:37:55;;;;;;;3.90;1.53;;;;;;;8.26;77.76;95379.06;5001065;28;20191;-78
2023/12/25 09:40:21;;;;;;;1.00;0.83;;;;;;;8.37;77.77;95391.06;4986658;28;20291;-78
2023/12/25 09:42:49;;;;;;;3.30;1.50;;;;;;;8.43;77.15;95380.16;4983958;28;20190;-79
2023/12/25 09:45:15;;;;;;;1.90;0.73;;;;;;;8.44;76.80;95398.13;5002388;28;20211;-80
2023/12/25 09:47:41;;;;;;;1.17;1.10;;;;;;;8.28;77.26;95395.25;4990857;28;20218;-79
2023/12/25 09:50:07;;;;;;;1.13;0.60;;;;;;;8.32;78.20;95403.59;4983071;28;20180;-79
2023/12/25 09:52:32;;;;;;;1.10;0.90;;;;;;;8.49;77.58;95402.91;4990389;28;20187;-80
2023/12/25 09:54:58;;;;;;;0.70;0.70;;;;;;;8.51;77.39;95393.25;4984593;28;20183;-80
2023/12/25 09:57:24;;;;;;;1.70;1.20;;;;;;;8.62;77.03;95400.03;4983407;28;20214;-80
2023/12/25 09:59:52;;;;;;;1.20;0.77;;;;;;;8.45;77.64;95404.13;4988056;28;20207;-80
2023/12/25 10:02:20;;;;;;;0.80;0.80;;;;;;;8.69;76.99;95407.09;5000470;28;20260;-80
2023/12/25 10:04:48;;;;;;;0.83;0.77;;;;;;;8.83;76.84;95415.38;4983710;28;20291;-80
2023/12/25 10:07:13;;;;;;;1.70;0.83;;;;;;;8.72;77.37;95399.03;4984604;28;20562;-78
2023/12/25 10:09:38;;;;;;;0.93;0.60;;;;;;;8.57;78.02;95392.69;4985810;28;20223;-80
2023/12/25 10:12:05;;;;;;;1.07;0.40;;;;;;;8.55;78.51;95386.81;5001167;28;20176;-79
2023/12/25 10:14:31;;;;;;;0.70;0.70;;;;;;;8.70;78.01;95384.63;4983994;28;20183;-79
2023/12/25 10:16:58;;;;;;;1.17;0.80;;;;;;;8.75;78.03;95385.03;4998447;28;20199;-79
2023/12/25 10:19:23;;;;;;;1.40;0.83;;;;;;;8.80;77.92;95372.47;4992295;28;20261;-79
2023/12/25 10:21:52;;;;;;;1.50;0.70;;;;;;;8.54;78.82;95361.88;4983370;28;20196;-80
2023/12/25 10:24:17;;;;;;;1.30;1.00;;;;;;;8.60;78.62;95363.13;4988201;28;20274;-79
2023/12/25 10:26:45;;;;;;;1.10;1.00;;;;;;;8.54;79.22;95371.44;4983589;28;20650;-79
2023/12/25 10:29:11;;;;;;;0.77;0.50;;;;;;;8.68;78.64;95353.69;4990253;28;20187;-80
2023/12/25 10:31:43;;;;;;;1.53;0.70;;;;;;;8.59;79.23;95366.66;5000688;28;20233;-79
2023/12/25 10:34:09;;;;;;;1.93;0.90;;;;;;;8.78;78.77;95358.84;5002975;28;20183;-79
2023/12/25 10:36:34;;;;;;;1.00;0.73;;;;;;;8.62;79.54;95362.00;5007972;28;20199;-78
2023/12/25 10:39:00;;;;;;;3.53;1.87;;;;;;;8.86;78.53;95355.56;4988458;28;20203;-80
2023/12/25 10:41:27;;;;;;;1.93;1.37;;;;;;;8.79;79.01;95347.53;5002475;28;20184;-79
2023/12/25 10:43:54;;;;;;;1.33;0.53;;;;;;;8.57;80.15;95358.19;5000846;28;20187;-80
2023/12/25 10:46:29;;;;;;;0.60;0.60;;;;;;;8.70;80.43;95344.00;4997868;28;20319;-79
2023/12/25 10:48:56;;;;;;;2.57;1.10;;;;;;;8.92;78.97;95353.22;4996787;28;20187;-81
2023/12/25 10:51:40;;;;;;;0.90;0.80;;;;;;;8.77;79.75;95347.66;4997455;28;20278;-80
2023/12/25 10:54:11;;;;;;;0.70;0.70;;;;;;;8.60;80.46;95343.22;4983264;28;20197;-80
2023/12/25 10:56:39;;;;;;;0.50;0.50;;;;;;;8.76;80.03;95340.88;4984433;28;20203;-80
2023/12/25 10:59:24;;;;;;;3.60;2.20;;;;;;;8.74;80.18;95342.75;5004666;28;20188;-80
2023/12/25 11:01:51;;;;;;;4.43;2.73;;;;;;;8.70;80.44;95340.59;5001914;28;20220;-80
2023/12/25 11:04:17;;;;;;;1.50;1.40;;;;;;;8.80;80.12;95343.97;4982033;28;20670;-80
2023/12/25 11:06:44;;;;;;;2.07;1.17;;;;;;;8.86;79.85;95343.41;5002422;28;20294;-80
2023/12/25 11:09:11;;;;;;;2.20;1.63;;;;;;;8.94;79.76;95340.13;5002136;28;20186;-80
2023/12/25 11:11:36;;;;;;;0.70;0.70;;;;;;;8.75;80.78;95339.25;4984972;28;20184;-80
2023/12/25 11:14:02;;;;;;;1.50;1.17;;;;;;;8.95;79.91;95345.16;4984864;28;20246;-81
2023/12/25 11:16:27;;;;;;;0.87;0.87;;;;;;;8.84;80.07;95334.97;4999387;28;20295;-81
2023/12/25 11:18:52;;;;;;;3.53;2.40;;;;;;;8.74;80.36;95341.94;4999596;28;20239;-80
2023/12/25 11:21:28;;;;;;;3.10;2.07;;;;;;;8.84;80.10;95331.59;4997593;28;20198;-81
2023/12/25 11:23:54;;;;;;;7.60;4.00;;;;;;;8.67;80.20;95346.06;5001430;28;20183;-81
2023/12/25 11:26:22;;;;;;;1.80;1.30;;;;;;;9.02;79.15;95340.22;5002715;28;20580;-81
2023/12/25 11:28:56;;;;;;;1.23;0.90;;;;;;;9.00;78.76;95353.28;5000394;28;20223;-80
2023/12/25 11:31:22;;;;;;;2.60;1.53;;;;;;;8.84;79.35;95355.69;5000203;28;20195;-80
2023/12/25 11:33:54;;;;;;;1.40;1.17;;;;;;;8.79;79.57;95365.66;5000585;28;20199;-79